createdAt,value
2023-04-12T00:03:04.738Z,7.80
2023-04-12T00:06:11.485Z,7.80
2023-04-12T00:09:17.024Z,7.70
2023-04-12T00:12:20.740Z,7.60
2023-04-12T00:15:23.978Z,7.50
2023-04-12T00:18:27.415Z,7.40
2023-04-12T00:21:30.696Z,7.30
2023-04-12T00:24:35.248Z,7.20
2023-04-12T00:27:39.094Z,7.00
2023-04-12T00:30:42.374Z,6.90
2023-04-12T00:33:46.049Z,6.80
2023-04-12T00:36:49.695Z,6.70
2023-04-12T00:39:54.346Z,6.60
2023-04-12T00:42:57.787Z,6.40
2023-04-12T00:46:03.393Z,6.40
2023-04-12T00:49:07.248Z,6.30
2023-04-12T00:52:12.204Z,6.30
2023-04-12T00:55:17.132Z,6.20
2023-04-12T00:58:22.922Z,6.10
2023-04-12T01:01:28.020Z,6.00
2023-04-12T01:04:31.325Z,6.00
2023-04-12T01:07:51.610Z,6.00
2023-04-12T01:10:58.946Z,6.00
2023-04-12T01:14:08.182Z,6.10
2023-04-12T01:17:17.274Z,6.20
2023-04-12T01:20:24.631Z,6.30
2023-04-12T01:23:49.024Z,6.40
2023-04-12T01:26:57.759Z,6.30
2023-04-12T01:30:04.196Z,6.20
2023-04-12T01:33:09.242Z,6.10
2023-04-12T01:36:17.705Z,5.90
2023-04-12T01:39:21.821Z,5.80
2023-04-12T01:42:25.964Z,5.70
2023-04-12T01:45:31.101Z,5.50
2023-04-12T01:48:34.471Z,5.40
2023-04-12T01:51:46.850Z,5.30
2023-04-12T01:54:54.740Z,5.20
2023-04-12T01:57:58.874Z,5.10
2023-04-12T02:01:05.701Z,5.00
2023-04-12T02:04:10.708Z,5.00
2023-04-12T02:07:15.298Z,5.00
2023-04-12T02:10:28.538Z,4.90
2023-04-12T02:13:31.760Z,4.70
2023-04-12T02:16:36.413Z,4.60
2023-04-12T02:19:41.017Z,4.50
2023-04-12T02:22:44.316Z,4.40
2023-04-12T02:25:47.765Z,4.30
2023-04-12T02:28:53.484Z,4.30
2023-04-12T02:31:58.587Z,4.20
2023-04-12T02:35:03.660Z,4.20
2023-04-12T02:38:08.163Z,4.10
2023-04-12T02:41:18.694Z,4.10
2023-04-12T02:44:21.910Z,4.00
2023-04-12T02:47:45.568Z,4.00
2023-04-12T02:50:49.590Z,4.00
2023-04-12T02:53:56.831Z,4.00
2023-04-12T02:57:03.797Z,3.90
2023-04-12T03:00:19.486Z,3.80
2023-04-12T03:03:26.752Z,4.00
2023-04-12T03:06:34.786Z,4.10
2023-04-12T03:09:42.571Z,4.20
2023-04-12T03:12:46.065Z,4.20
2023-04-12T03:15:57.177Z,4.40
2023-04-12T03:19:08.760Z,4.50
2023-04-12T03:22:12.355Z,4.50
2023-04-12T03:25:20.035Z,4.60
2023-04-12T03:28:30.268Z,4.60
2023-04-12T03:31:34.871Z,4.50
2023-04-12T03:34:43.409Z,4.60
2023-04-12T03:37:49.692Z,4.60
2023-04-12T03:40:53.148Z,4.70
2023-04-12T03:44:03.722Z,4.70
2023-04-12T03:47:09.634Z,4.70
2023-04-12T03:50:14.498Z,4.80
2023-04-12T03:53:23.840Z,5.10
2023-04-12T03:56:27.269Z,5.00
2023-04-12T03:59:32.875Z,5.00
2023-04-12T04:02:37.412Z,5.10
2023-04-12T04:05:46.106Z,5.10
2023-04-12T04:08:50.396Z,5.20
2023-04-12T04:11:53.968Z,5.30
2023-04-12T04:15:01.097Z,5.30
2023-04-12T04:18:07.352Z,5.60
2023-04-12T04:21:12.207Z,5.60
2023-04-12T04:24:18.827Z,5.70
2023-04-12T04:27:25.205Z,5.90
2023-04-12T04:30:34.463Z,5.90
2023-04-12T04:33:40.136Z,5.90
2023-04-12T04:36:49.170Z,6.00
2023-04-12T04:39:59.480Z,6.00
2023-04-12T04:43:03.048Z,6.00
2023-04-12T04:46:12.001Z,6.00
2023-04-12T04:49:15.621Z,6.00
2023-04-12T04:52:20.451Z,6.10
2023-04-12T04:55:30.043Z,6.10
2023-04-12T04:58:34.487Z,6.10
2023-04-12T05:01:38.298Z,6.20
2023-04-12T05:04:42.143Z,6.20
2023-04-12T05:07:49.782Z,6.10
2023-04-12T05:10:53.633Z,6.10
2023-04-12T05:13:59.015Z,6.20
2023-04-12T05:17:02.559Z,6.20
2023-04-12T05:20:07.748Z,6.20
2023-04-12T05:23:12.856Z,6.10
2023-04-12T05:26:16.111Z,6.20
2023-04-12T05:29:23.997Z,6.40
2023-04-12T05:32:28.039Z,6.50
2023-04-12T05:35:32.504Z,6.60
2023-04-12T05:38:37.889Z,6.80
2023-04-12T05:41:47.195Z,6.80
2023-04-12T05:44:50.895Z,6.80
2023-04-12T05:47:57.334Z,6.70
2023-04-12T05:51:01.188Z,6.70
2023-04-12T05:54:09.159Z,6.70
2023-04-12T05:57:13.978Z,6.70
2023-04-12T06:00:18.722Z,6.70
2023-04-12T06:03:23.870Z,6.80
2023-04-12T06:06:30.175Z,7.00
2023-04-12T06:09:35.551Z,7.10
2023-04-12T06:12:39.181Z,7.10
2023-04-12T06:15:42.634Z,7.30
2023-04-12T06:18:46.336Z,7.40
2023-04-12T06:21:49.589Z,7.50
2023-04-12T06:24:54.434Z,7.60
2023-04-12T06:28:00.089Z,7.70
2023-04-12T06:31:04.146Z,7.80
2023-04-12T06:34:11.932Z,7.90
2023-04-12T06:37:16.076Z,8.10
2023-04-12T06:40:20.916Z,8.20
2023-04-12T06:43:24.289Z,8.50
2023-04-12T06:46:28.521Z,8.70
2023-04-12T06:49:32.078Z,8.80
2023-04-12T06:52:35.432Z,9.00
2023-04-12T06:55:40.175Z,9.00
2023-04-12T06:58:43.535Z,9.10
2023-04-12T07:01:46.889Z,9.00
2023-04-12T07:04:54.035Z,8.90
2023-04-12T07:07:57.193Z,9.20
2023-04-12T07:11:14.475Z,9.20
2023-04-12T07:14:23.300Z,9.20
2023-04-12T07:17:27.532Z,9.30
2023-04-12T07:20:30.835Z,9.40
2023-04-12T07:23:34.278Z,9.60
2023-04-12T07:26:38.969Z,9.80
2023-04-12T07:29:42.278Z,10.10
2023-04-12T07:32:46.329Z,10.30
2023-04-12T07:35:49.709Z,10.60
2023-04-12T07:38:55.663Z,10.80
2023-04-12T07:42:50.315Z,10.90
2023-04-12T07:45:56.029Z,11.20
2023-04-12T07:48:59.479Z,11.30
2023-04-12T07:52:02.920Z,11.00
2023-04-12T07:55:06.614Z,11.00
2023-04-12T07:58:09.804Z,11.00
2023-04-12T08:01:16.941Z,10.60
2023-04-12T08:04:20.634Z,10.40
2023-04-12T08:07:24.127Z,10.60
2023-04-12T08:10:27.506Z,10.40
2023-04-12T08:13:30.713Z,10.70
2023-04-12T08:16:35.315Z,10.90
2023-04-12T08:19:38.647Z,10.60
2023-04-12T08:22:41.946Z,10.70
2023-04-12T08:25:45.190Z,11.00
2023-04-12T08:28:48.638Z,10.70
2023-04-12T08:31:53.853Z,10.80
2023-04-12T08:34:57.217Z,10.80
2023-04-12T08:38:06.894Z,11.10
2023-04-12T08:41:10.206Z,11.10
2023-04-12T08:44:13.618Z,10.90
2023-04-12T08:47:18.413Z,11.20
2023-04-12T08:50:22.881Z,11.10
2023-04-12T08:53:26.388Z,11.20
2023-04-12T08:56:31.125Z,11.50
2023-04-12T08:59:37.972Z,11.60
2023-04-12T09:02:46.304Z,11.50
2023-04-12T09:05:49.702Z,11.60
2023-04-12T09:08:55.149Z,11.40
2023-04-12T09:12:10.202Z,11.30
2023-04-12T09:15:17.773Z,11.40
2023-04-12T09:18:23.224Z,11.30
2023-04-12T09:21:27.284Z,11.40
2023-04-12T09:24:31.497Z,11.70
2023-04-12T09:27:48.249Z,11.70
2023-04-12T09:30:53.154Z,11.80
2023-04-12T09:34:09.192Z,12.00
2023-04-12T09:37:16.749Z,12.10
2023-04-12T09:40:26.995Z,11.90
2023-04-12T09:43:39.423Z,12.10
2023-04-12T09:46:53.061Z,11.80
2023-04-12T09:49:58.021Z,12.00
2023-04-12T09:53:02.296Z,12.30
2023-04-12T09:56:08.377Z,12.30
2023-04-12T09:59:14.301Z,12.10
2023-04-12T10:02:19.423Z,12.10
2023-04-12T10:05:26.985Z,12.40
2023-04-12T10:08:31.656Z,12.80
2023-04-12T10:11:35.814Z,12.60
2023-04-12T10:14:40.054Z,12.50
2023-04-12T10:17:45.363Z,12.70
2023-04-12T10:20:50.204Z,13.00
2023-04-12T10:23:56.313Z,13.20
2023-04-12T10:27:02.875Z,13.60
2023-04-12T10:30:23.434Z,13.90
2023-04-12T10:33:28.592Z,14.00
2023-04-12T10:36:56.051Z,14.00
2023-04-12T10:39:59.367Z,13.90
2023-04-12T10:43:28.082Z,14.20
2023-04-12T10:46:53.432Z,14.30
2023-04-12T10:50:22.006Z,14.30
2023-04-12T10:53:26.737Z,14.50
2023-04-12T10:56:40.590Z,14.70
2023-04-12T10:59:54.337Z,14.60
2023-04-12T11:03:12.715Z,14.00
2023-04-12T11:06:26.891Z,14.10
2023-04-12T11:09:51.852Z,14.60
2023-04-12T11:13:08.911Z,15.10
2023-04-12T11:16:14.025Z,15.90
2023-04-12T11:19:18.711Z,16.30
2023-04-12T11:22:23.816Z,15.70
2023-04-12T11:25:30.143Z,15.50
2023-04-12T11:28:35.370Z,14.70
2023-04-12T11:31:39.963Z,14.70
2023-04-12T11:34:46.506Z,14.70
2023-04-12T11:37:50.008Z,14.60
2023-04-12T11:40:54.698Z,14.70
2023-04-12T11:43:57.954Z,15.00
2023-04-12T11:47:02.330Z,15.10
2023-04-12T11:50:06.579Z,15.20
2023-04-12T11:53:13.377Z,15.10
2023-04-12T11:56:18.186Z,15.00
2023-04-12T11:59:21.518Z,15.00
2023-04-12T12:02:27.088Z,15.00
2023-04-12T12:05:36.733Z,14.60
2023-04-12T12:08:41.024Z,14.80
2023-04-12T12:11:45.798Z,14.90
2023-04-12T12:14:49.120Z,15.20
2023-04-12T12:17:52.906Z,14.90
2023-04-12T12:20:56.552Z,14.90
2023-04-12T12:24:00.088Z,15.00
2023-04-12T12:27:05.368Z,14.90
2023-04-12T12:30:12.252Z,15.10
2023-04-12T12:33:21.877Z,15.10
2023-04-12T12:36:33.930Z,14.60
2023-04-12T12:39:37.478Z,14.70
2023-04-12T12:42:50.145Z,14.50
2023-04-12T12:45:53.422Z,14.10
2023-04-12T12:48:57.314Z,13.80
2023-04-12T12:52:01.173Z,13.60
2023-04-12T12:55:04.793Z,13.50
2023-04-12T12:58:09.400Z,13.40
2023-04-12T13:01:12.785Z,13.20
2023-04-12T13:04:16.219Z,13.40
2023-04-12T13:07:19.661Z,13.20
2023-04-12T13:10:23.523Z,13.20
2023-04-12T13:13:28.450Z,13.20
2023-04-12T13:16:31.737Z,13.20
2023-04-12T13:19:35.007Z,13.00
2023-04-12T13:22:38.298Z,13.20
2023-04-12T13:25:41.614Z,13.10
2023-04-12T13:28:46.634Z,12.90
2023-04-12T13:31:50.270Z,13.10
2023-04-12T13:34:54.058Z,13.20
2023-04-12T13:37:57.553Z,13.40
2023-04-12T13:41:00.850Z,13.60
2023-04-12T13:44:05.780Z,13.50
2023-04-12T13:47:09.187Z,13.60
2023-04-12T13:50:12.652Z,13.40
2023-04-12T13:53:15.880Z,13.40
2023-04-12T13:56:19.716Z,13.40
2023-04-12T13:59:24.686Z,13.60
2023-04-12T14:02:29.365Z,13.50
2023-04-12T14:05:34.547Z,13.50
2023-04-12T14:08:37.871Z,13.30
2023-04-12T14:11:48.217Z,13.20
2023-04-12T14:14:53.390Z,13.20
2023-04-12T14:17:56.974Z,13.10
2023-04-12T14:21:00.383Z,13.10
2023-04-12T14:24:04.083Z,13.00
2023-04-12T14:27:08.602Z,13.00
2023-04-12T14:30:13.896Z,12.90
2023-04-12T14:33:17.677Z,12.90
2023-04-12T14:36:21.144Z,12.90
2023-04-12T14:39:26.088Z,12.90
2023-04-12T14:42:29.293Z,12.80
2023-04-12T14:45:34.195Z,13.00
2023-04-12T14:48:37.478Z,13.10
2023-04-12T14:51:40.699Z,13.10
2023-04-12T14:54:44.012Z,13.20
2023-04-12T14:57:47.184Z,13.30
2023-04-12T15:00:51.850Z,13.10
2023-04-12T15:03:55.563Z,13.20
2023-04-12T15:06:58.948Z,13.30
2023-04-12T15:10:04.903Z,13.50
2023-04-12T15:13:08.358Z,13.50
2023-04-12T15:16:15.024Z,13.60
2023-04-12T15:19:22.311Z,13.70
2023-04-12T15:22:26.498Z,13.70
2023-04-12T15:25:30.961Z,13.90
2023-04-12T15:28:34.774Z,14.00
2023-04-12T15:31:39.652Z,14.00
2023-04-12T15:34:43.560Z,14.20
2023-04-12T15:37:48.028Z,14.20
2023-04-12T15:40:56.341Z,14.10
2023-04-12T15:43:59.896Z,14.00
2023-04-12T15:47:11.069Z,13.70
2023-04-12T15:50:15.349Z,13.60
2023-04-12T15:53:20.307Z,13.30
2023-04-12T15:56:25.533Z,13.30
2023-04-12T15:59:29.972Z,13.50
2023-04-12T16:02:35.041Z,13.40
2023-04-12T16:05:38.486Z,13.40
2023-04-12T16:08:41.958Z,13.50
2023-04-12T16:11:46.616Z,13.60
2023-04-12T16:14:51.341Z,13.40
2023-04-12T16:17:56.788Z,13.30
2023-04-12T16:21:00.185Z,13.00
2023-04-12T16:24:03.654Z,12.80
2023-04-12T16:27:07.141Z,12.60
2023-04-12T16:30:12.032Z,12.50
2023-04-12T16:33:17.390Z,12.50
2023-04-12T16:36:23.509Z,12.40
2023-04-12T16:39:29.149Z,12.40
2023-04-12T16:42:32.634Z,12.30
2023-04-12T16:45:36.317Z,12.20
2023-04-12T16:48:42.156Z,12.10
2023-04-12T16:51:45.522Z,12.00
2023-04-12T16:54:48.776Z,12.00
2023-04-12T16:57:53.727Z,12.00
2023-04-12T17:00:57.878Z,11.90
2023-04-12T17:04:03.686Z,11.90
2023-04-12T17:07:08.049Z,11.90
2023-04-12T17:10:12.124Z,11.90
2023-04-12T17:13:19.422Z,11.80
2023-04-12T17:16:24.962Z,11.80
2023-04-12T17:19:29.791Z,11.70
2023-04-12T17:22:33.357Z,11.80
2023-04-12T17:25:37.824Z,11.70
2023-04-12T17:28:45.134Z,11.70
2023-04-12T17:31:54.323Z,11.60
2023-04-12T17:35:00.156Z,11.50
2023-04-12T17:38:03.542Z,11.40
2023-04-12T17:41:10.041Z,11.30
2023-04-12T17:44:13.476Z,11.10
2023-04-12T17:47:17.339Z,10.90
2023-04-12T17:50:22.757Z,10.90
2023-04-12T17:53:26.078Z,10.80
2023-04-12T17:56:29.943Z,10.80
2023-04-12T17:59:33.950Z,10.60
2023-04-12T18:02:38.190Z,10.40
2023-04-12T18:05:46.104Z,10.30
2023-04-12T18:08:51.285Z,10.20
2023-04-12T18:11:57.155Z,10.10
2023-04-12T18:15:03.926Z,10.00
2023-04-12T18:18:08.100Z,10.00
2023-04-12T18:21:14.665Z,10.00
2023-04-12T18:24:18.034Z,9.90
2023-04-12T18:27:22.160Z,9.90
2023-04-12T18:30:25.897Z,9.90
2023-04-12T18:33:30.288Z,9.80
2023-04-12T18:36:36.889Z,9.80
2023-04-12T18:39:42.912Z,9.80
2023-04-12T18:42:46.624Z,9.80
2023-04-12T18:45:50.764Z,9.70
2023-04-12T18:48:54.835Z,9.70
2023-04-12T18:52:00.433Z,9.70
2023-04-12T18:55:03.925Z,9.70
2023-04-12T18:58:08.148Z,9.70
2023-04-12T19:01:12.345Z,9.60
2023-04-12T19:04:16.909Z,9.70
2023-04-12T19:07:22.259Z,9.70
2023-04-12T19:10:30.501Z,9.70
2023-04-12T19:13:34.281Z,9.60
2023-04-12T19:16:38.502Z,9.60
2023-04-12T19:19:42.391Z,9.60
2023-04-12T19:22:48.632Z,9.50
2023-04-12T19:25:53.009Z,9.50
2023-04-12T19:28:58.868Z,9.40
2023-04-12T19:32:07.299Z,9.40
2023-04-12T19:35:15.156Z,9.30
2023-04-12T19:38:21.316Z,9.40
2023-04-12T19:41:24.798Z,9.40
2023-04-12T19:44:29.328Z,9.30
2023-04-12T19:47:34.579Z,9.30
2023-04-12T19:50:39.805Z,9.30
2023-04-12T19:53:46.295Z,9.30
2023-04-12T19:56:50.165Z,9.10
2023-04-12T19:59:53.670Z,9.10
2023-04-12T20:02:57.297Z,9.10
2023-04-12T20:06:04.254Z,9.00
2023-04-12T20:09:09.099Z,9.00
2023-04-12T20:12:12.356Z,9.00
2023-04-12T20:15:15.789Z,9.00
2023-04-12T20:18:19.176Z,9.00
2023-04-12T20:21:23.329Z,9.00
2023-04-12T20:24:30.021Z,9.00
2023-04-12T20:27:33.664Z,9.00
2023-04-12T20:30:37.544Z,9.00
2023-04-12T20:33:42.201Z,9.00
2023-04-12T20:36:45.477Z,8.90
2023-04-12T20:39:51.497Z,8.90
2023-04-12T20:42:55.826Z,8.90
2023-04-12T20:46:00.890Z,8.90
2023-04-12T20:49:06.598Z,8.80
2023-04-12T20:52:10.053Z,8.80
2023-04-12T20:55:15.177Z,8.70
2023-04-12T20:58:19.312Z,8.70
2023-04-12T21:01:23.945Z,8.70
2023-04-12T21:04:28.451Z,8.60
2023-04-12T21:07:32.233Z,8.60
2023-04-12T21:10:36.825Z,8.60
2023-04-12T21:13:40.732Z,8.50
2023-04-12T21:16:44.554Z,8.50
2023-04-12T21:19:50.083Z,8.50
2023-04-12T21:22:53.757Z,8.50
2023-04-12T21:25:58.514Z,8.50
2023-04-12T21:29:02.450Z,8.50
2023-04-12T21:32:06.749Z,8.50
2023-04-12T21:35:11.145Z,8.40
2023-04-12T21:38:14.485Z,8.50
2023-04-12T21:41:19.118Z,8.40
2023-04-12T21:44:22.325Z,8.40
2023-04-12T21:47:25.645Z,8.40
2023-04-12T21:50:28.803Z,8.40
2023-04-12T21:53:32.030Z,8.30
2023-04-12T21:56:36.594Z,8.40
2023-04-12T21:59:41.698Z,8.30
2023-04-12T22:02:44.985Z,8.30
2023-04-12T22:06:00.844Z,8.30
2023-04-12T22:09:07.098Z,8.20
2023-04-12T22:12:12.409Z,8.20
2023-04-12T22:15:16.412Z,8.30
2023-04-12T22:18:20.525Z,8.30
2023-04-12T22:21:23.861Z,8.20
2023-04-12T22:24:27.070Z,8.30
2023-04-12T22:27:31.741Z,8.30
2023-04-12T22:30:36.349Z,8.30
2023-04-12T22:33:40.011Z,8.30
2023-04-12T22:36:43.189Z,8.30
2023-04-12T22:39:51.370Z,8.30
2023-04-12T22:42:56.092Z,8.20
2023-04-12T22:46:02.107Z,8.20
2023-04-12T22:49:05.780Z,8.20
2023-04-12T22:52:09.091Z,8.10
2023-04-12T22:55:14.301Z,8.10
2023-04-12T22:58:19.617Z,8.00
2023-04-12T23:01:22.842Z,8.00
2023-04-12T23:04:26.048Z,8.00
2023-04-12T23:07:29.920Z,8.00
2023-04-12T23:10:33.712Z,7.90
2023-04-12T23:13:38.338Z,7.90
2023-04-12T23:16:44.052Z,8.00
2023-04-12T23:19:47.318Z,8.00
2023-04-12T23:22:57.482Z,7.90
2023-04-12T23:26:01.498Z,8.00
2023-04-12T23:29:06.401Z,7.90
2023-04-12T23:32:17.520Z,7.90
2023-04-12T23:35:20.754Z,7.80
2023-04-12T23:38:32.151Z,7.80
2023-04-12T23:41:36.135Z,7.60
2023-04-12T23:44:41.121Z,7.80
2023-04-12T23:47:44.396Z,7.90
2023-04-12T23:50:48.229Z,7.60
2023-04-12T23:53:51.670Z,7.50
2023-04-12T23:56:54.868Z,7.40
2023-04-12T23:59:59.469Z,7.40
